Terminal Aerodrome Forecast
Issued by NWS

Current Version | Previous Version | Text Only | Print | Product List | Glossary On
Versions: 1 2 3 4 5 6 7 8 9 10 11 12 13 14 15 16 17 18 19 20 21 22 23 24 25 26 27 28 29 30 31 32 33 34 35 36 37 38 39 40 41 42 43
000
FTUS46 KPQR 061136
TAFONP
TAF
KONP 061136Z 0612/0712 10006KT P6SM -SHRASN SCT015 BKN025
     FM061500 05006KT P6SM VCSH SCT025 BKN050
     FM061900 03007KT P6SM SCT050
     FM070000 08007KT P6SM SKC=

USA.gov is the U.S. government's official web portal to all federal, state and local government web resources and services.